createdAt,value
2022-09-20T00:01:09.650Z,13.10
2022-09-20T00:03:38.274Z,13.10
2022-09-20T00:06:06.977Z,13.10
2022-09-20T00:08:34.306Z,13.00
2022-09-20T00:11:10.041Z,13.00
2022-09-20T00:13:38.893Z,12.90
2022-09-20T00:16:08.262Z,12.90
2022-09-20T00:18:35.884Z,12.80
2022-09-20T00:21:03.820Z,12.80
2022-09-20T00:23:31.136Z,12.70
2022-09-20T00:26:02.500Z,12.70
2022-09-20T00:28:29.929Z,12.60
2022-09-20T00:30:57.206Z,12.60
2022-09-20T00:33:45.345Z,12.50
2022-09-20T00:36:12.192Z,12.50
2022-09-20T00:38:38.785Z,12.40
2022-09-20T00:41:05.880Z,12.30
2022-09-20T00:43:50.429Z,12.30
2022-09-20T00:46:40.460Z,12.20
2022-09-20T00:49:20.994Z,12.20
2022-09-20T00:51:57.846Z,12.10
2022-09-20T00:54:25.743Z,12.10
2022-09-20T00:56:52.585Z,12.00
2022-09-20T00:59:30.858Z,12.00
2022-09-20T01:02:10.721Z,11.90
2022-09-20T01:04:40.201Z,11.90
2022-09-20T01:07:09.260Z,11.80
2022-09-20T01:09:36.250Z,11.80
2022-09-20T01:12:13.605Z,11.80
2022-09-20T01:14:42.690Z,11.70
2022-09-20T01:17:10.381Z,11.70
2022-09-20T01:19:49.460Z,11.70
2022-09-20T01:22:27.566Z,11.70
2022-09-20T01:25:23.129Z,11.60
2022-09-20T01:27:52.303Z,11.60
2022-09-20T01:30:55.361Z,11.60
2022-09-20T01:33:40.314Z,11.60
2022-09-20T01:36:09.076Z,11.50
2022-09-20T01:39:07.600Z,11.50
2022-09-20T01:41:48.836Z,11.40
2022-09-20T01:44:46.060Z,11.50
2022-09-20T01:47:44.138Z,11.40
2022-09-20T01:50:25.025Z,11.40
2022-09-20T01:53:05.533Z,11.40
2022-09-20T01:55:41.089Z,11.40
2022-09-20T01:58:29.579Z,11.40
2022-09-20T02:01:13.148Z,11.40
2022-09-20T02:04:15.599Z,11.40
2022-09-20T02:06:48.600Z,11.30
2022-09-20T02:09:30.560Z,11.30
2022-09-20T02:12:50.724Z,11.30
2022-09-20T02:15:45.586Z,11.30
2022-09-20T02:18:34.321Z,11.20
2022-09-20T02:21:32.643Z,11.20
2022-09-20T02:24:29.288Z,11.10
2022-09-20T02:27:17.288Z,11.10
2022-09-20T02:30:00.489Z,11.10
2022-09-20T02:32:39.032Z,11.10
2022-09-20T02:35:12.246Z,11.10
2022-09-20T02:37:38.882Z,11.10
2022-09-20T02:40:27.586Z,11.10
2022-09-20T02:43:33.337Z,11.10
2022-09-20T02:46:23.837Z,11.10
2022-09-20T02:49:19.769Z,11.10
2022-09-20T02:52:25.097Z,11.10
2022-09-20T02:55:00.290Z,11.10
2022-09-20T02:58:05.452Z,11.00
2022-09-20T03:00:46.125Z,11.00
2022-09-20T03:03:34.628Z,11.00
2022-09-20T03:06:07.043Z,11.00
2022-09-20T03:08:50.836Z,11.00
2022-09-20T03:11:39.185Z,10.90
2022-09-20T03:14:24.393Z,10.90
2022-09-20T03:17:18.832Z,10.90
2022-09-20T03:20:17.577Z,10.80
2022-09-20T03:23:12.302Z,10.80
2022-09-20T03:26:18.423Z,10.80
2022-09-20T03:28:58.344Z,10.70
2022-09-20T03:31:54.599Z,10.80
2022-09-20T03:34:56.276Z,10.70
2022-09-20T03:37:58.671Z,10.70
2022-09-20T03:41:03.424Z,10.70
2022-09-20T03:43:52.617Z,10.70
2022-09-20T03:46:34.660Z,10.70
2022-09-20T03:49:31.992Z,10.70
2022-09-20T03:52:05.632Z,10.70
2022-09-20T03:55:04.026Z,10.70
2022-09-20T03:57:48.849Z,10.70
2022-09-20T04:00:39.673Z,10.60
2022-09-20T04:03:12.220Z,10.60
2022-09-20T04:06:06.622Z,10.60
2022-09-20T04:09:04.595Z,10.60
2022-09-20T04:11:42.761Z,10.50
2022-09-20T04:14:23.206Z,10.50
2022-09-20T04:17:00.728Z,10.50
2022-09-20T04:19:38.120Z,10.50
2022-09-20T04:22:07.337Z,10.50
2022-09-20T04:24:56.174Z,10.40
2022-09-20T04:27:31.876Z,10.40
2022-09-20T04:30:07.516Z,10.40
2022-09-20T04:32:44.720Z,10.40
2022-09-20T04:35:48.932Z,10.40
2022-09-20T04:38:19.485Z,10.30
2022-09-20T04:41:17.044Z,10.30
2022-09-20T04:44:08.893Z,10.30
2022-09-20T04:47:03.397Z,10.30
2022-09-20T04:50:02.293Z,10.20
2022-09-20T04:52:58.520Z,10.20
2022-09-20T04:55:55.988Z,10.20
2022-09-20T04:58:36.299Z,10.10
2022-09-20T05:01:16.710Z,10.10
2022-09-20T05:04:20.445Z,10.10
2022-09-20T05:07:08.808Z,10.10
2022-09-20T05:09:54.368Z,10.10
2022-09-20T05:13:05.371Z,10.10
2022-09-20T05:15:59.584Z,10.20
2022-09-20T05:18:34.768Z,10.20
2022-09-20T05:21:10.913Z,10.20
2022-09-20T05:23:49.808Z,10.30
2022-09-20T05:26:41.987Z,10.20
2022-09-20T05:29:26.653Z,10.30
2022-09-20T05:32:06.569Z,10.30
2022-09-20T05:34:46.272Z,10.30
2022-09-20T05:37:30.972Z,10.40
2022-09-20T05:40:32.811Z,10.40
2022-09-20T05:43:41.556Z,10.40
2022-09-20T05:46:36.832Z,10.40
2022-09-20T05:49:21.100Z,10.40
2022-09-20T05:52:25.684Z,10.30
2022-09-20T05:55:30.741Z,10.30
2022-09-20T05:58:23.905Z,10.30
2022-09-20T06:01:01.158Z,10.30
2022-09-20T06:03:41.704Z,10.30
2022-09-20T06:06:18.254Z,10.30
2022-09-20T06:09:10.977Z,10.30
2022-09-20T06:11:56.321Z,10.30
2022-09-20T06:15:04.811Z,10.30
2022-09-20T06:17:38.639Z,10.30
2022-09-20T06:20:11.338Z,10.30
2022-09-20T06:22:55.273Z,10.30
2022-09-20T06:25:45.121Z,10.30
2022-09-20T06:28:21.073Z,10.40
2022-09-20T06:30:48.635Z,10.40
2022-09-20T06:33:18.110Z,10.50
2022-09-20T06:36:24.638Z,10.50
2022-09-20T06:39:22.241Z,10.60
2022-09-20T06:41:49.517Z,10.70
2022-09-20T06:44:17.770Z,10.80
2022-09-20T06:46:44.511Z,10.90
2022-09-20T06:49:11.124Z,11.00
2022-09-20T06:51:39.334Z,11.10
2022-09-20T06:54:14.184Z,11.20
2022-09-20T06:56:41.132Z,11.30
2022-09-20T06:59:08.518Z,11.40
2022-09-20T07:01:35.791Z,11.50
2022-09-20T07:04:03.341Z,11.60
2022-09-20T07:06:30.337Z,11.70
2022-09-20T07:08:56.941Z,11.80
2022-09-20T07:11:24.134Z,12.00
2022-09-20T07:13:52.461Z,12.00
2022-09-20T07:16:20.085Z,12.20
2022-09-20T07:18:47.724Z,12.30
2022-09-20T07:21:16.736Z,12.40
2022-09-20T07:23:45.925Z,12.50
2022-09-20T07:26:25.459Z,12.70
2022-09-20T07:28:52.757Z,12.80
2022-09-20T07:31:21.563Z,12.90
2022-09-20T07:33:49.081Z,13.00
2022-09-20T07:36:19.292Z,13.20
2022-09-20T07:38:50.545Z,13.30
2022-09-20T07:41:22.777Z,13.40
2022-09-20T07:43:50.694Z,13.50
2022-09-20T07:46:18.126Z,13.60
2022-09-20T07:48:44.913Z,13.70
2022-09-20T07:51:13.537Z,13.70
2022-09-20T07:53:40.788Z,13.80
2022-09-20T07:56:11.788Z,13.90
2022-09-20T07:58:38.854Z,14.00
2022-09-20T08:01:21.178Z,14.10
2022-09-20T08:03:48.072Z,14.20
2022-09-20T08:06:16.394Z,14.40
2022-09-20T08:08:43.504Z,14.60
2022-09-20T08:11:11.768Z,14.80
2022-09-20T08:16:32.422Z,15.20
2022-09-20T08:19:01.839Z,15.40
2022-09-20T08:21:31.854Z,15.60
2022-09-20T08:23:59.796Z,15.80
2022-09-20T08:26:28.623Z,16.00
2022-09-20T08:28:57.109Z,16.10
2022-09-20T08:31:26.335Z,16.30
2022-09-20T08:33:54.473Z,16.70
2022-09-20T08:36:24.575Z,17.40
2022-09-20T08:41:48.159Z,19.10
2022-09-20T08:44:14.779Z,20.20
2022-09-20T08:47:16.013Z,21.30
2022-09-20T08:49:46.032Z,22.40
2022-09-20T08:52:36.353Z,23.50
2022-09-20T08:55:22.012Z,24.60
2022-09-20T08:57:57.288Z,25.60
2022-09-20T09:00:32.313Z,26.70
2022-09-20T09:03:07.662Z,27.50
2022-09-20T09:05:37.760Z,28.20
2022-09-20T09:08:37.615Z,28.90
2022-09-20T09:11:13.617Z,29.70
2022-09-20T09:13:49.418Z,30.40
2022-09-20T09:16:23.091Z,30.80
2022-09-20T09:18:53.223Z,31.10
2022-09-20T09:21:21.405Z,31.30
2022-09-20T09:24:01.078Z,31.40
2022-09-20T09:26:29.350Z,31.40
2022-09-20T09:29:16.273Z,31.20
2022-09-20T09:31:45.053Z,30.60
2022-09-20T09:34:29.849Z,30.00
2022-09-20T09:36:58.100Z,29.20
2022-09-20T09:39:30.150Z,28.40
2022-09-20T09:42:01.604Z,27.60
2022-09-20T09:44:33.795Z,27.00
2022-09-20T09:47:01.052Z,26.20
2022-09-20T09:49:33.281Z,25.60
2022-09-20T09:52:13.042Z,24.90
2022-09-20T09:54:42.260Z,24.40
2022-09-20T09:57:10.819Z,23.90
2022-09-20T09:59:52.739Z,23.40
2022-09-20T10:02:28.149Z,23.00
2022-09-20T10:05:11.005Z,22.60
2022-09-20T10:07:49.404Z,22.50
2022-09-20T10:10:37.765Z,22.30
2022-09-20T10:13:11.910Z,22.10
2022-09-20T10:16:00.449Z,22.00
2022-09-20T10:18:31.809Z,22.00
2022-09-20T10:21:08.336Z,22.00
2022-09-20T10:24:04.855Z,21.90
2022-09-20T10:27:00.434Z,21.70
2022-09-20T10:29:30.125Z,21.50
2022-09-20T10:32:03.880Z,21.20
2022-09-20T10:35:03.615Z,21.00
2022-09-20T10:37:33.724Z,20.70
2022-09-20T10:40:15.582Z,20.50
2022-09-20T10:43:08.040Z,20.30
2022-09-20T10:46:30.337Z,20.30
2022-09-20T10:49:23.738Z,20.50
2022-09-20T10:52:31.538Z,20.90
2022-09-20T10:55:13.198Z,21.50
2022-09-20T10:57:58.494Z,22.20
2022-09-20T11:00:48.531Z,22.90
2022-09-20T11:03:30.032Z,23.50
2022-09-20T11:06:21.457Z,24.10
2022-09-20T11:08:54.085Z,24.50
2022-09-20T11:11:31.013Z,24.90
2022-09-20T11:14:13.201Z,25.50
2022-09-20T11:16:45.693Z,26.20
2022-09-20T11:19:50.485Z,26.80
2022-09-20T11:22:43.205Z,27.40
2022-09-20T11:25:22.307Z,27.60
2022-09-20T11:27:58.016Z,27.50
2022-09-20T11:30:25.517Z,27.10
2022-09-20T11:33:05.960Z,26.70
2022-09-20T11:35:40.477Z,26.20
2022-09-20T11:38:28.010Z,25.60
2022-09-20T11:41:05.117Z,25.00
2022-09-20T11:43:32.974Z,24.50
2022-09-20T11:46:04.463Z,24.00
2022-09-20T11:48:52.394Z,23.60
2022-09-20T11:51:22.008Z,23.10
2022-09-20T11:54:03.769Z,22.60
2022-09-20T11:56:33.830Z,22.20
2022-09-20T11:59:07.353Z,21.90
2022-09-20T12:01:42.915Z,21.60
2022-09-20T12:04:32.494Z,21.30
2022-09-20T12:07:09.763Z,21.10
2022-09-20T12:09:43.321Z,20.80
2022-09-20T12:12:15.103Z,20.60
2022-09-20T12:14:42.319Z,20.50
2022-09-20T12:17:44.087Z,20.40
2022-09-20T12:20:32.891Z,20.20
2022-09-20T12:23:36.701Z,20.20
2022-09-20T12:26:06.877Z,20.10
2022-09-20T12:28:39.472Z,20.20
2022-09-20T12:31:18.638Z,20.20
2022-09-20T12:34:15.912Z,20.30
2022-09-20T12:36:55.938Z,20.40
2022-09-20T12:39:37.574Z,20.50
2022-09-20T12:42:10.120Z,20.70
2022-09-20T12:44:41.100Z,21.00
2022-09-20T12:47:10.602Z,21.30
2022-09-20T12:50:04.661Z,21.50
2022-09-20T12:53:03.815Z,21.70
2022-09-20T12:55:52.864Z,21.90
2022-09-20T12:58:23.685Z,21.90
2022-09-20T13:00:59.519Z,21.80
2022-09-20T13:03:38.785Z,21.80
2022-09-20T13:06:10.910Z,21.70
2022-09-20T13:09:04.410Z,21.70
2022-09-20T13:11:55.815Z,21.70
2022-09-20T13:14:28.869Z,21.80
2022-09-20T13:17:15.983Z,21.80
2022-09-20T13:19:47.564Z,21.90
2022-09-20T13:22:37.078Z,22.10
2022-09-20T13:25:07.108Z,22.40
2022-09-20T13:27:38.358Z,22.50
2022-09-20T13:30:21.543Z,22.60
2022-09-20T13:32:50.296Z,22.50
2022-09-20T13:35:19.585Z,22.40
2022-09-20T13:38:09.176Z,22.30
2022-09-20T13:40:39.449Z,22.10
2022-09-20T13:43:27.663Z,21.90
2022-09-20T13:45:59.879Z,21.70
2022-09-20T13:48:28.476Z,21.60
2022-09-20T13:50:56.404Z,21.50
2022-09-20T13:53:40.520Z,21.40
2022-09-20T13:56:25.567Z,21.30
2022-09-20T13:58:53.249Z,21.10
2022-09-20T14:01:30.408Z,21.00
2022-09-20T14:04:13.260Z,20.90
2022-09-20T14:06:40.361Z,20.80
2022-09-20T14:09:15.029Z,20.70
2022-09-20T14:11:41.912Z,20.80
2022-09-20T14:14:12.209Z,20.80
2022-09-20T14:16:40.877Z,20.90
2022-09-20T14:19:08.852Z,21.00
2022-09-20T14:21:37.098Z,21.10
2022-09-20T14:24:26.049Z,21.30
2022-09-20T14:27:22.348Z,21.60
2022-09-20T14:29:53.750Z,21.90
2022-09-20T14:32:20.561Z,22.20
2022-09-20T14:34:56.613Z,22.60
2022-09-20T14:37:33.776Z,22.90
2022-09-20T14:40:25.271Z,23.20
2022-09-20T14:42:55.507Z,23.40
2022-09-20T14:45:32.410Z,23.60
2022-09-20T14:48:00.853Z,23.80
2022-09-20T14:50:32.516Z,23.90
2022-09-20T14:53:12.646Z,23.90
2022-09-20T14:55:42.324Z,23.80
2022-09-20T14:58:14.317Z,23.60
2022-09-20T15:01:02.073Z,23.30
2022-09-20T15:03:38.521Z,22.90
2022-09-20T15:06:06.763Z,22.60
2022-09-20T15:08:36.892Z,22.30
2022-09-20T15:11:04.169Z,22.00
2022-09-20T15:13:31.011Z,21.70
2022-09-20T15:15:58.806Z,21.50
2022-09-20T15:18:26.936Z,21.20
2022-09-20T15:20:55.038Z,21.00
2022-09-20T15:23:22.156Z,20.80
2022-09-20T15:25:54.176Z,20.60
2022-09-20T15:28:21.400Z,20.40
2022-09-20T15:30:50.477Z,20.20
2022-09-20T15:33:18.554Z,20.10
2022-09-20T15:35:45.774Z,19.90
2022-09-20T15:38:14.132Z,19.80
2022-09-20T15:40:47.430Z,19.70
2022-09-20T15:43:17.732Z,19.50
2022-09-20T15:45:50.481Z,19.50
2022-09-20T15:48:20.803Z,19.40
2022-09-20T15:51:06.877Z,19.40
2022-09-20T15:53:36.619Z,19.50
2022-09-20T15:56:05.463Z,19.70
2022-09-20T15:58:36.332Z,20.00
2022-09-20T16:01:08.396Z,20.20
2022-09-20T16:03:36.324Z,20.50
2022-09-20T16:06:05.846Z,20.70
2022-09-20T16:08:34.044Z,21.00
2022-09-20T16:11:01.465Z,21.20
2022-09-20T16:13:28.865Z,21.40
2022-09-20T16:15:57.184Z,21.60
2022-09-20T16:18:43.473Z,21.80
2022-09-20T16:21:12.657Z,21.80
2022-09-20T16:23:41.512Z,21.80
2022-09-20T16:26:12.954Z,21.70
2022-09-20T16:28:47.274Z,21.60
2022-09-20T16:31:48.901Z,21.40
2022-09-20T16:34:23.976Z,21.10
2022-09-20T16:36:53.035Z,20.90
2022-09-20T16:39:21.012Z,20.70
2022-09-20T16:41:48.827Z,20.50
2022-09-20T16:44:15.653Z,20.30
2022-09-20T16:46:44.563Z,20.10
2022-09-20T16:49:12.941Z,20.00
2022-09-20T16:51:41.492Z,19.90
2022-09-20T16:54:13.896Z,19.70
2022-09-20T16:56:46.428Z,19.60
2022-09-20T16:59:15.689Z,19.50
2022-09-20T17:01:43.308Z,19.40
2022-09-20T17:04:14.001Z,19.30
2022-09-20T17:06:43.427Z,19.20
2022-09-20T17:09:11.197Z,19.10
2022-09-20T17:11:49.944Z,19.00
2022-09-20T17:14:18.636Z,18.80
2022-09-20T17:16:49.074Z,18.70
2022-09-20T17:19:18.980Z,18.70
2022-09-20T17:21:49.960Z,18.50
2022-09-20T17:24:18.976Z,18.40
2022-09-20T17:26:46.565Z,18.30
2022-09-20T17:29:16.235Z,18.30
2022-09-20T17:31:48.779Z,18.20
2022-09-20T17:34:21.542Z,18.10
2022-09-20T17:36:50.168Z,18.00
2022-09-20T17:39:17.237Z,17.90
2022-09-20T17:41:46.644Z,17.90
2022-09-20T17:44:14.046Z,17.80
2022-09-20T17:46:43.117Z,17.70
2022-09-20T17:49:14.875Z,17.50
2022-09-20T17:51:46.869Z,17.40
2022-09-20T17:54:14.299Z,17.30
2022-09-20T17:56:46.287Z,17.20
2022-09-20T17:59:16.207Z,17.10
2022-09-20T18:01:44.674Z,17.00
2022-09-20T18:04:11.525Z,16.90
2022-09-20T18:06:47.453Z,16.70
2022-09-20T18:09:16.206Z,16.60
2022-09-20T18:11:46.364Z,16.50
2022-09-20T18:14:13.532Z,16.40
2022-09-20T18:16:40.515Z,16.30
2022-09-20T18:19:08.552Z,16.10
2022-09-20T18:21:36.664Z,16.10
2022-09-20T18:24:08.893Z,15.90
2022-09-20T18:26:36.778Z,15.80
2022-09-20T18:29:04.025Z,15.70
2022-09-20T18:31:45.015Z,15.60
2022-09-20T18:34:18.383Z,15.50
2022-09-20T18:36:54.010Z,15.40
2022-09-20T18:39:22.001Z,15.30
2022-09-20T18:41:50.371Z,15.20
2022-09-20T18:44:18.422Z,15.10
2022-09-20T18:46:48.972Z,15.00
2022-09-20T18:49:17.047Z,14.90
2022-09-20T18:51:44.563Z,14.90
2022-09-20T18:54:11.983Z,14.70
2022-09-20T18:56:40.839Z,14.60
2022-09-20T18:59:19.456Z,14.60
2022-09-20T19:01:55.470Z,14.50
2022-09-20T19:04:37.306Z,14.40
2022-09-20T19:07:22.528Z,14.40
2022-09-20T19:09:49.197Z,14.30
2022-09-20T19:12:39.399Z,14.20
2022-09-20T19:15:29.152Z,14.20
2022-09-20T19:18:25.200Z,14.10
2022-09-20T19:21:28.193Z,14.00
2022-09-20T19:24:17.053Z,14.00
2022-09-20T19:26:44.731Z,13.90
2022-09-20T19:29:24.749Z,13.80
2022-09-20T19:31:59.129Z,13.80
2022-09-20T19:34:30.381Z,13.80
2022-09-20T19:37:23.202Z,13.80
2022-09-20T19:40:24.989Z,13.80
2022-09-20T19:43:15.612Z,13.80
2022-09-20T19:46:06.315Z,13.70
2022-09-20T19:48:39.193Z,13.70
2022-09-20T19:51:11.005Z,13.70
2022-09-20T19:53:39.163Z,13.70
2022-09-20T19:56:25.718Z,13.70
2022-09-20T19:58:54.934Z,13.70
2022-09-20T20:01:23.134Z,13.60
2022-09-20T20:03:50.773Z,13.70
2022-09-20T20:06:57.153Z,13.60
2022-09-20T20:09:50.415Z,13.60
2022-09-20T20:12:41.558Z,13.60
2022-09-20T20:15:21.602Z,13.60
2022-09-20T20:18:05.066Z,13.60
2022-09-20T20:20:39.511Z,13.60
2022-09-20T20:23:21.147Z,13.60
2022-09-20T20:26:09.938Z,13.50
2022-09-20T20:28:37.057Z,13.50
2022-09-20T20:31:04.491Z,13.50
2022-09-20T20:33:32.776Z,13.50
2022-09-20T20:36:01.137Z,13.50
2022-09-20T20:38:28.548Z,13.50
2022-09-20T20:41:07.165Z,13.40
2022-09-20T20:43:36.285Z,13.40
2022-09-20T20:46:04.194Z,13.50
2022-09-20T20:48:31.179Z,13.40
2022-09-20T20:51:01.149Z,13.40
2022-09-20T20:53:36.737Z,13.40
2022-09-20T20:56:05.695Z,13.40
2022-09-20T20:58:32.449Z,13.40
2022-09-20T21:01:07.243Z,13.40
2022-09-20T21:03:34.373Z,13.40
2022-09-20T21:06:01.795Z,13.40
2022-09-20T21:08:36.560Z,13.40
2022-09-20T21:11:06.450Z,13.40
2022-09-20T21:13:33.180Z,13.40
2022-09-20T21:16:05.611Z,13.30
2022-09-20T21:18:33.830Z,13.30
2022-09-20T21:21:02.476Z,13.30
2022-09-20T21:23:33.952Z,13.30
2022-09-20T21:26:12.369Z,13.30
2022-09-20T21:28:41.690Z,13.20
2022-09-20T21:31:10.502Z,13.20
2022-09-20T21:33:42.492Z,13.20
2022-09-20T21:36:12.816Z,13.10
2022-09-20T21:38:41.080Z,13.10
2022-09-20T21:41:13.646Z,13.10
2022-09-20T21:43:42.736Z,13.10
2022-09-20T21:46:15.575Z,13.00
2022-09-20T21:48:42.256Z,13.00
2022-09-20T21:51:10.731Z,12.90
2022-09-20T21:53:39.223Z,12.90
2022-09-20T21:56:10.702Z,12.80
2022-09-20T21:58:40.795Z,12.80
2022-09-20T22:01:11.612Z,12.80
2022-09-20T22:03:41.248Z,12.70
2022-09-20T22:06:19.612Z,12.60
2022-09-20T22:08:51.845Z,12.60
2022-09-20T22:11:20.260Z,12.50
2022-09-20T22:13:49.620Z,12.50
2022-09-20T22:16:26.594Z,12.50
2022-09-20T22:18:54.276Z,12.40
2022-09-20T22:21:23.686Z,12.40
2022-09-20T22:23:53.209Z,12.30
2022-09-20T22:26:22.038Z,12.30
2022-09-20T22:28:52.402Z,12.20
2022-09-20T22:31:22.485Z,12.20
2022-09-20T22:33:51.800Z,12.10
2022-09-20T22:36:21.933Z,12.00
2022-09-20T22:38:49.212Z,12.00
2022-09-20T22:41:18.137Z,12.00
2022-09-20T22:43:45.351Z,11.90
2022-09-20T22:46:23.969Z,11.90
2022-09-20T22:48:51.048Z,11.80
2022-09-20T22:51:19.774Z,11.80
2022-09-20T22:53:47.561Z,11.70
2022-09-20T22:56:16.931Z,11.70
2022-09-20T22:58:46.141Z,11.60
2022-09-20T23:01:18.632Z,11.60
2022-09-20T23:03:47.669Z,11.60
2022-09-20T23:06:20.961Z,11.50
2022-09-20T23:08:52.578Z,11.50
2022-09-20T23:11:20.171Z,11.50
2022-09-20T23:13:47.832Z,11.50
2022-09-20T23:16:19.736Z,11.40
2022-09-20T23:18:47.671Z,11.40
2022-09-20T23:21:14.921Z,11.40
2022-09-20T23:23:45.210Z,11.40
2022-09-20T23:26:17.769Z,11.40
2022-09-20T23:28:51.832Z,11.40
2022-09-20T23:31:18.624Z,11.40
2022-09-20T23:33:56.980Z,11.30
2022-09-20T23:36:25.329Z,11.30
2022-09-20T23:38:52.518Z,11.30
2022-09-20T23:41:21.284Z,11.30
2022-09-20T23:43:48.809Z,11.30
2022-09-20T23:46:17.668Z,11.30
2022-09-20T23:48:44.776Z,11.30
2022-09-20T23:51:14.327Z,11.30
2022-09-20T23:53:41.893Z,11.30
2022-09-20T23:56:09.876Z,11.30
2022-09-20T23:58:37.440Z,11.20
